Time;durP1;ratioP1;P1;durP2;ratioP2;P2;SDS_P1;SDS_P2;PMS_P1;PMS_P2;Temp;Humidity;BMP_temperature;BMP_pressure;BME280_temperature;BME280_humidity;BME280_pressure;Samples;Min_cycle;Max_cycle;Signal;HPM_P1;HPM_P2
2022/07/06 00:01:38;;;;;;;7.75;1.70;;;15.70;99.90;;;;;;5060093;28;20052;-72
2022/07/06 00:04:05;;;;;;;4.93;1.38;;;15.70;99.90;;;;;;5079391;28;20558;-71
2022/07/06 00:06:31;;;;;;;4.63;1.63;;;15.70;99.90;;;;;;5087483;28;20553;-71
2022/07/06 00:08:57;;;;;;;5.38;1.70;;;15.70;99.90;;;;;;5088587;28;20396;-71
2022/07/06 00:11:23;;;;;;;5.53;1.42;;;15.80;99.90;;;;;;5073481;28;20142;-71
2022/07/06 00:13:50;;;;;;;7.07;1.73;;;15.70;99.90;;;;;;5068705;28;20131;-71
2022/07/06 00:16:16;;;;;;;6.35;1.75;;;15.70;99.90;;;;;;5040807;28;20133;-71
2022/07/06 00:18:41;;;;;;;5.78;1.60;;;16.20;99.90;;;;;;5064620;28;20552;-71
2022/07/06 00:21:07;;;;;;;4.28;1.30;;;15.70;99.90;;;;;;5066897;28;20037;-71
2022/07/06 00:23:35;;;;;;;7.00;1.60;;;15.70;99.90;;;;;;5070596;28;20071;-71
2022/07/06 00:26:01;;;;;;;5.30;1.40;;;15.60;99.90;;;;;;5068956;28;20072;-71
2022/07/06 00:28:27;;;;;;;4.70;1.50;;;15.40;99.90;;;;;;5071847;28;20405;-71
2022/07/06 00:30:53;;;;;;;4.55;1.48;;;15.40;99.90;;;;;;5081286;28;20063;-71
2022/07/06 00:33:19;;;;;;;5.18;1.45;;;15.40;99.90;;;;;;5068857;28;20048;-71
2022/07/06 00:35:44;;;;;;;5.65;1.50;;;15.40;99.90;;;;;;5069655;28;20473;-71
2022/07/06 00:38:10;;;;;;;8.50;1.65;;;15.80;99.90;;;;;;5067905;28;20052;-71
2022/07/06 00:40:36;;;;;;;4.85;1.42;;;16.00;99.90;;;;;;5067826;28;20135;-71
2022/07/06 00:43:01;;;;;;;6.43;1.60;;;15.40;99.90;;;;;;5059919;28;20471;-71
2022/07/06 00:45:27;;;;;;;4.95;1.33;;;15.40;99.90;;;;;;5068128;28;20044;-71
2022/07/06 00:47:53;;;;;;;5.22;1.48;;;15.40;99.90;;;;;;5069979;28;20044;-71
2022/07/06 00:50:21;;;;;;;6.78;1.70;;;15.50;99.90;;;;;;5088209;28;20040;-71
2022/07/06 00:53:00;;;;;;;5.82;1.50;;;15.80;99.90;;;;;;5073597;28;20036;-71
2022/07/06 00:55:28;;;;;;;5.43;1.58;;;15.40;99.90;;;;;;5083256;28;20052;-71
2022/07/06 00:57:55;;;;;;;6.18;1.65;;;15.40;99.90;;;;;;5074285;28;20052;-71
2022/07/06 01:00:22;;;;;;;7.63;1.83;;;15.40;99.90;;;;;;5069377;28;20037;-71
2022/07/06 01:02:48;;;;;;;6.25;1.70;;;15.50;99.90;;;;;;5048588;28;20066;-72
2022/07/06 01:05:15;;;;;;;5.18;1.70;;;15.90;99.90;;;;;;5053615;28;20200;-72
2022/07/06 01:07:43;;;;;;;8.27;2.17;;;16.00;99.90;;;;;;5088179;28;20119;-71
2022/07/06 01:10:10;;;;;;;3.85;1.77;;;15.40;99.90;;;;;;5085963;28;20051;-71
2022/07/06 01:12:38;;;;;;;5.85;1.75;;;15.40;99.90;;;;;;5052394;28;20048;-71
2022/07/06 01:15:06;;;;;;;5.68;1.88;;;15.30;99.90;;;;;;5050313;28;20060;-72
2022/07/06 01:17:33;;;;;;;5.40;1.70;;;15.30;99.90;;;;;;5068150;28;20071;-72
2022/07/06 01:20:07;;;;;;;5.45;1.70;;;15.40;99.90;;;;;;5032871;28;20052;-72
2022/07/06 01:22:33;;;;;;;4.63;1.75;;;15.30;99.90;;;;;;5084428;28;20036;-72
2022/07/06 01:24:58;;;;;;;5.38;1.60;;;15.30;99.90;;;;;;5033877;28;20055;-72
2022/07/06 01:27:24;;;;;;;7.45;2.00;;;15.30;99.90;;;;;;5067367;28;20033;-72
2022/07/06 01:29:49;;;;;;;6.05;1.70;;;15.30;99.90;;;;;;5067889;28;20404;-71
2022/07/06 01:32:15;;;;;;;7.88;1.92;;;15.30;99.90;;;;;;5070570;28;20056;-72
2022/07/06 01:34:41;;;;;;;4.53;1.60;;;15.30;99.90;;;;;;5069190;28;20052;-72
2022/07/06 01:37:06;;;;;;;7.90;1.88;;;15.30;99.90;;;;;;5084171;28;20424;-72
2022/07/06 01:39:32;;;;;;;5.03;2.03;;;15.30;99.90;;;;;;5084938;28;20041;-72
2022/07/06 01:41:58;;;;;;;5.43;1.80;;;15.30;99.90;;;;;;5081197;28;20496;-72
2022/07/06 01:44:24;;;;;;;6.00;1.70;;;15.30;99.90;;;;;;5083997;28;20040;-71
2022/07/06 01:46:49;;;;;;;8.13;2.10;;;15.30;99.90;;;;;;5087965;28;20438;-71
2022/07/06 01:49:15;;;;;;;6.03;1.60;;;15.20;99.90;;;;;;5087304;28;20071;-72
2022/07/06 01:51:40;;;;;;;4.38;1.58;;;15.10;99.90;;;;;;5086304;28;20066;-71
2022/07/06 01:54:06;;;;;;;7.25;1.50;;;15.20;99.90;;;;;;5100306;28;20616;-72
2022/07/06 01:56:31;;;;;;;7.35;1.77;;;15.10;99.90;;;;;;5076673;28;20043;-72
2022/07/06 01:58:57;;;;;;;4.75;1.50;;;15.20;99.90;;;;;;5070931;28;20521;-71
2022/07/06 02:01:23;;;;;;;8.10;1.50;;;15.20;99.90;;;;;;5048875;28;20277;-72
2022/07/06 02:03:49;;;;;;;7.05;1.67;;;15.20;99.90;;;;;;5072809;28;20050;-72
2022/07/06 02:06:15;;;;;;;5.57;1.50;;;15.20;99.90;;;;;;5086337;28;20127;-72
2022/07/06 02:08:41;;;;;;;5.13;1.75;;;15.20;99.90;;;;;;5087181;28;20568;-72
2022/07/06 02:11:08;;;;;;;6.00;1.60;;;15.30;99.90;;;;;;5086944;28;20048;-72
2022/07/06 02:13:35;;;;;;;7.07;1.52;;;15.30;99.90;;;;;;5058156;28;20045;-72
2022/07/06 02:16:01;;;;;;;6.07;1.70;;;15.30;99.90;;;;;;5085907;28;20338;-72
2022/07/06 02:18:27;;;;;;;6.22;1.60;;;15.30;99.90;;;;;;5086538;28;20054;-73
2022/07/06 02:20:52;;;;;;;5.80;1.40;;;15.30;99.90;;;;;;5087536;28;20040;-71
2022/07/06 02:23:18;;;;;;;6.75;1.58;;;15.70;99.90;;;;;;5090380;28;20043;-72
2022/07/06 02:25:44;;;;;;;4.22;1.20;;;15.30;99.90;;;;;;5070335;28;20041;-72
2022/07/06 02:28:10;;;;;;;6.43;1.90;;;15.30;99.90;;;;;;5070510;28;20470;-72
2022/07/06 02:30:35;;;;;;;5.70;1.67;;;15.30;99.90;;;;;;5071111;28;20055;-72
2022/07/06 02:33:01;;;;;;;4.32;1.73;;;15.70;99.90;;;;;;5052312;28;20041;-71
2022/07/06 02:35:26;;;;;;;7.75;1.90;;;15.20;99.90;;;;;;5086534;28;20119;-72
2022/07/06 02:37:52;;;;;;;6.97;1.80;;;15.20;99.90;;;;;;5090168;28;20048;-72
2022/07/06 02:40:18;;;;;;;5.78;1.85;;;15.10;99.90;;;;;;5071020;28;20028;-71
2022/07/06 02:42:43;;;;;;;7.70;1.77;;;15.10;99.90;;;;;;5090120;28;20657;-71
2022/07/06 02:45:10;;;;;;;7.25;1.70;;;15.00;99.90;;;;;;5089200;28;20072;-71
2022/07/06 02:47:36;;;;;;;4.85;1.67;;;15.00;99.90;;;;;;5090265;28;20036;-71
2022/07/06 02:50:01;;;;;;;6.00;1.70;;;16.00;99.90;;;;;;5090749;28;20403;-71
2022/07/06 02:52:27;;;;;;;6.22;1.55;;;14.90;99.90;;;;;;5082569;28;20064;-71
2022/07/06 02:54:53;;;;;;;6.35;1.70;;;14.80;99.90;;;;;;5078761;28;20515;-71
2022/07/06 02:57:19;;;;;;;6.75;1.95;;;14.80;99.90;;;;;;5090575;28;20040;-71
2022/07/06 02:59:45;;;;;;;4.72;1.70;;;14.90;99.90;;;;;;5082987;28;20052;-71
2022/07/06 03:02:11;;;;;;;5.30;1.90;;;14.70;99.90;;;;;;5069821;28;20056;-71
2022/07/06 03:04:37;;;;;;;5.40;1.80;;;14.60;99.90;;;;;;5070222;28;20420;-71
2022/07/06 03:07:03;;;;;;;5.80;1.98;;;14.60;99.90;;;;;;5069558;28;20139;-72
2022/07/06 03:09:29;;;;;;;7.50;1.90;;;14.60;99.90;;;;;;5069260;28;20051;-72
2022/07/06 03:11:55;;;;;;;4.43;1.90;;;14.60;99.90;;;;;;5070088;28;20119;-72
2022/07/06 03:14:21;;;;;;;6.50;1.88;;;14.60;99.90;;;;;;5073330;28;20036;-72
2022/07/06 03:16:46;;;;;;;7.15;2.30;;;14.60;99.90;;;;;;5089661;28;20133;-72
2022/07/06 03:19:12;;;;;;;6.15;1.90;;;14.50;99.90;;;;;;5079374;28;20072;-71
2022/07/06 03:21:38;;;;;;;10.10;1.80;;;14.50;99.90;;;;;;5069188;28;20430;-72
2022/07/06 03:24:04;;;;;;;6.05;1.90;;;14.40;99.90;;;;;;5058255;28;20056;-72
2022/07/06 03:26:30;;;;;;;8.13;1.90;;;14.40;99.90;;;;;;5066759;28;20523;-71
2022/07/06 03:28:55;;;;;;;4.97;1.60;;;14.60;99.90;;;;;;5080307;28;20048;-71
2022/07/06 03:31:21;;;;;;;5.28;1.98;;;14.40;99.90;;;;;;5070630;28;20192;-72
2022/07/06 03:33:46;;;;;;;6.35;2.33;;;14.40;99.90;;;;;;5053658;28;20057;-71
2022/07/06 03:36:12;;;;;;;6.88;2.00;;;14.40;99.90;;;;;;5070403;28;20083;-71
2022/07/06 03:38:37;;;;;;;6.75;1.90;;;14.30;99.90;;;;;;5069808;28;20060;-71
2022/07/06 03:41:03;;;;;;;5.38;1.70;;;14.80;99.90;;;;;;5078119;28;20036;-71
2022/07/06 03:43:30;;;;;;;7.57;1.90;;;15.10;99.90;;;;;;5089184;28;20035;-72
2022/07/06 03:45:55;;;;;;;6.57;2.15;;;14.30;99.90;;;;;;5032081;28;20502;-71
2022/07/06 03:48:21;;;;;;;9.63;2.20;;;14.20;99.90;;;;;;5067493;28;20051;-72
2022/07/06 03:50:46;;;;;;;7.80;1.90;;;14.30;99.90;;;;;;5070149;28;20426;-72
2022/07/06 03:53:12;;;;;;;10.00;1.63;;;15.00;99.90;;;;;;5068500;28;20075;-72
2022/07/06 03:55:38;;;;;;;5.75;1.70;;;14.20;99.90;;;;;;5069786;28;20047;-72
2022/07/06 03:58:03;;;;;;;6.65;1.88;;;14.20;99.90;;;;;;5068377;28;20049;-71
2022/07/06 04:00:29;;;;;;;9.43;2.20;;;14.20;99.90;;;;;;5078727;28;20051;-71
2022/07/06 04:02:54;;;;;;;6.50;2.05;;;14.20;99.90;;;;;;5073863;28;20457;-72
2022/07/06 04:05:21;;;;;;;7.45;1.85;;;14.10;99.90;;;;;;5069014;28;20068;-71
2022/07/06 04:07:50;;;;;;;7.57;2.10;;;14.20;99.90;;;;;;5069056;28;20047;-71
2022/07/06 04:10:16;;;;;;;8.80;2.10;;;14.20;99.90;;;;;;5068755;28;20103;-71
2022/07/06 04:12:43;;;;;;;4.78;1.67;;;14.10;99.90;;;;;;5069892;28;20047;-72
2022/07/06 04:15:10;;;;;;;7.70;1.90;;;14.20;99.90;;;;;;5051254;28;20045;-71
2022/07/06 04:17:53;;;;;;;5.82;1.92;;;14.20;99.90;;;;;;5069715;28;20037;-71
2022/07/06 04:20:23;;;;;;;5.82;1.90;;;14.20;99.90;;;;;;5077428;28;20362;-71
2022/07/06 04:22:49;;;;;;;5.97;2.10;;;14.20;99.90;;;;;;5072176;28;20342;-71
2022/07/06 04:25:14;;;;;;;7.47;1.73;;;15.20;99.90;;;;;;5088366;28;20113;-71
2022/07/06 04:27:40;;;;;;;5.93;1.70;;;14.90;99.90;;;;;;5090809;28;20052;-71
2022/07/06 04:30:07;;;;;;;7.57;1.80;;;14.40;99.90;;;;;;5088576;28;20469;-71
2022/07/06 04:32:32;;;;;;;7.95;1.70;;;14.40;99.90;;;;;;5067610;28;20071;-72
2022/07/06 04:34:58;;;;;;;6.35;1.50;;;14.40;99.90;;;;;;5086770;28;20036;-72
2022/07/06 04:37:24;;;;;;;6.15;1.80;;;14.60;99.90;;;;;;5089928;28;20052;-72
2022/07/06 04:39:49;;;;;;;6.28;1.60;;;14.40;99.90;;;;;;5088742;28;20036;-72
2022/07/06 04:42:15;;;;;;;5.78;1.40;;;14.40;99.90;;;;;;5087903;28;20044;-71
2022/07/06 04:44:41;;;;;;;5.40;1.63;;;14.40;99.90;;;;;;5070497;28;20043;-72
2022/07/06 04:47:06;;;;;;;6.90;1.50;;;14.40;99.90;;;;;;5088425;28;20036;-71
2022/07/06 04:49:32;;;;;;;5.57;1.35;;;14.40;99.90;;;;;;5086838;28;20102;-72
2022/07/06 04:51:58;;;;;;;5.72;1.40;;;14.40;99.90;;;;;;5059873;28;20040;-72
2022/07/06 04:54:23;;;;;;;7.35;1.70;;;14.40;99.90;;;;;;5059105;28;20079;-71
2022/07/06 04:56:49;;;;;;;3.65;1.27;;;14.40;99.90;;;;;;5069809;28;20052;-71
2022/07/06 04:59:15;;;;;;;4.65;1.17;;;14.40;99.90;;;;;;5074766;28;20059;-71
2022/07/06 05:01:40;;;;;;;3.63;1.17;;;14.40;99.90;;;;;;5075450;28;20044;-72
2022/07/06 05:04:07;;;;;;;3.53;1.40;;;14.50;99.90;;;;;;5050450;28;20059;-71
2022/07/06 05:06:33;;;;;;;2.92;1.30;;;14.50;99.90;;;;;;5067396;28;20052;-71
2022/07/06 05:09:01;;;;;;;3.42;1.17;;;14.60;99.90;;;;;;5067608;28;20485;-71
2022/07/06 05:11:27;;;;;;;4.38;1.10;;;14.70;99.90;;;;;;5068574;28;20037;-72
2022/07/06 05:13:53;;;;;;;4.45;1.35;;;14.70;99.90;;;;;;5067958;28;20051;-71
2022/07/06 05:16:18;;;;;;;3.35;0.95;;;14.80;99.90;;;;;;5067025;28;20052;-72
2022/07/06 05:18:44;;;;;;;3.85;1.08;;;14.90;99.90;;;;;;5074889;28;20040;-72
2022/07/06 05:21:10;;;;;;;3.83;1.15;;;15.30;99.90;;;;;;5074386;28;20097;-72
2022/07/06 05:23:35;;;;;;;5.55;1.20;;;15.00;99.90;;;;;;5067168;28;20110;-71
2022/07/06 05:26:01;;;;;;;4.80;1.27;;;15.10;99.90;;;;;;5069294;28;20052;-72
2022/07/06 05:28:27;;;;;;;4.18;1.30;;;15.30;99.90;;;;;;5070690;28;20078;-72
2022/07/06 05:30:52;;;;;;;4.50;1.50;;;15.60;99.90;;;;;;5070526;28;20083;-72
2022/07/06 05:33:18;;;;;;;3.95;1.40;;;15.30;99.90;;;;;;5082935;28;20064;-71
2022/07/06 05:35:44;;;;;;;4.88;1.50;;;15.50;99.90;;;;;;5067212;28;20045;-71
2022/07/06 05:38:10;;;;;;;6.72;1.70;;;15.30;99.90;;;;;;5051138;28;20067;-72
2022/07/06 05:40:36;;;;;;;6.82;1.67;;;15.30;99.90;;;;;;5070590;28;20044;-72
2022/07/06 05:43:02;;;;;;;7.00;1.30;;;15.30;99.90;;;;;;5074124;28;20135;-69
2022/07/06 05:45:27;;;;;;;4.32;1.48;;;15.20;99.90;;;;;;5060927;28;20108;-69
2022/07/06 05:50:37;;;;;;;4.55;1.90;;;15.40;99.90;;;;;;5073483;28;20079;-70
2022/07/06 05:53:04;;;;;;;5.90;1.55;;;15.70;99.90;;;;;;5076257;28;20075;-70
2022/07/06 05:55:30;;;;;;;4.70;1.60;;;15.30;99.90;;;;;;5084836;28;20048;-70
2022/07/06 05:57:56;;;;;;;5.30;2.45;;;15.40;99.90;;;;;;5062021;28;20157;-70
2022/07/06 06:00:23;;;;;;;3.95;1.70;;;15.50;99.90;;;;;;5078380;28;20074;-71
2022/07/06 06:02:49;;;;;;;9.80;1.98;;;15.50;99.90;;;;;;5091632;28;20075;-70
2022/07/06 06:05:15;;;;;;;6.40;2.10;;;15.60;99.90;;;;;;5088620;28;20089;-69
2022/07/06 06:07:41;;;;;;;6.22;1.95;;;15.70;99.90;;;;;;5072318;28;20105;-70
2022/07/06 06:10:12;;;;;;;5.60;2.20;;;15.60;99.90;;;;;;5090547;28;20409;-70
2022/07/06 06:12:38;;;;;;;3.95;1.63;;;15.70;99.90;;;;;;5084004;28;20078;-70
2022/07/06 06:15:05;;;;;;;6.80;1.45;;;15.70;99.90;;;;;;5070549;28;20401;-70
2022/07/06 06:17:31;;;;;;;6.93;1.55;;;15.60;99.90;;;;;;5053575;28;20083;-69
2022/07/06 06:19:58;;;;;;;6.82;1.63;;;15.60;99.90;;;;;;5073661;28;20037;-69
2022/07/06 06:22:24;;;;;;;4.75;1.50;;;15.60;99.90;;;;;;5072599;28;20515;-70
2022/07/06 06:24:50;;;;;;;4.32;1.40;;;15.50;99.90;;;;;;5083072;28;20109;-70
2022/07/06 06:27:16;;;;;;;4.38;1.30;;;15.80;99.90;;;;;;5061638;28;20074;-70
2022/07/06 06:29:44;;;;;;;5.95;1.52;;;15.60;99.90;;;;;;5072989;28;20047;-70
2022/07/06 06:32:10;;;;;;;6.20;1.63;;;15.70;99.90;;;;;;5072905;28;20137;-70
2022/07/06 06:34:36;;;;;;;5.95;1.90;;;15.70;99.90;;;;;;5070421;28;20051;-70
2022/07/06 06:37:02;;;;;;;5.25;1.92;;;15.70;99.90;;;;;;5049958;28;20057;-70
2022/07/06 06:39:28;;;;;;;9.65;1.77;;;15.80;99.90;;;;;;5051327;28;20045;-70
2022/07/06 06:41:53;;;;;;;5.43;1.83;;;15.80;99.90;;;;;;5031998;28;20049;-70
2022/07/06 06:44:22;;;;;;;3.90;1.48;;;15.80;99.90;;;;;;5073819;28;20033;-70
2022/07/06 06:46:50;;;;;;;7.93;1.80;;;15.90;99.90;;;;;;5070287;28;20611;-70
2022/07/06 06:49:16;;;;;;;8.68;1.90;;;16.00;99.90;;;;;;5070400;28;20056;-69
2022/07/06 06:51:45;;;;;;;5.05;1.58;;;16.00;99.90;;;;;;5069854;28;20048;-69
2022/07/06 06:54:10;;;;;;;6.28;1.55;;;16.10;99.90;;;;;;5073294;28;20115;-70
2022/07/06 06:56:36;;;;;;;6.40;1.80;;;16.20;99.90;;;;;;5089986;28;20127;-70
2022/07/06 06:59:02;;;;;;;4.72;1.70;;;16.40;99.90;;;;;;5090650;28;20044;-70
2022/07/06 07:01:29;;;;;;;6.60;1.63;;;16.40;99.90;;;;;;5088801;28;20044;-70
2022/07/06 07:03:55;;;;;;;7.40;1.92;;;17.40;99.90;;;;;;5088159;28;20131;-70
2022/07/06 07:06:21;;;;;;;7.57;1.85;;;16.40;99.90;;;;;;5069337;28;20527;-69
2022/07/06 07:08:47;;;;;;;9.55;1.83;;;16.50;99.90;;;;;;5068553;28;20389;-69
2022/07/06 07:11:12;;;;;;;3.78;1.30;;;16.70;99.90;;;;;;5069582;28;20059;-69
2022/07/06 07:13:38;;;;;;;6.72;1.80;;;16.50;99.90;;;;;;5055659;28;20052;-68
2022/07/06 07:16:04;;;;;;;4.18;1.73;;;17.10;99.90;;;;;;5049424;28;20623;-68
2022/07/06 07:18:29;;;;;;;5.97;1.60;;;16.50;99.90;;;;;;5050148;28;20130;-69
2022/07/06 07:20:55;;;;;;;5.32;1.65;;;16.50;99.90;;;;;;5079813;28;20068;-69
2022/07/06 07:23:21;;;;;;;3.40;1.30;;;17.20;99.90;;;;;;5068948;28;20056;-69
2022/07/06 07:25:46;;;;;;;6.65;1.60;;;16.60;99.90;;;;;;5061005;28;20037;-69
2022/07/06 07:28:12;;;;;;;8.45;1.70;;;16.60;99.90;;;;;;5069807;28;20048;-69
2022/07/06 07:30:37;;;;;;;5.65;1.48;;;16.50;99.90;;;;;;5069317;28;20060;-71
2022/07/06 07:33:03;;;;;;;7.90;1.50;;;16.50;99.90;;;;;;5068519;28;20052;-68
2022/07/06 07:35:29;;;;;;;8.23;1.83;;;16.50;99.90;;;;;;5063506;28;20781;-67
2022/07/06 07:37:54;;;;;;;4.43;1.60;;;16.60;99.90;;;;;;5080486;28;20206;-68
2022/07/06 07:40:20;;;;;;;4.65;1.27;;;17.10;99.90;;;;;;5073592;28;20032;-67
2022/07/06 07:42:45;;;;;;;5.07;1.40;;;16.70;99.90;;;;;;5086552;28;20113;-67
2022/07/06 07:45:12;;;;;;;5.07;1.13;;;16.80;99.90;;;;;;5069354;28;20123;-67
2022/07/06 07:47:38;;;;;;;5.32;1.42;;;17.10;99.90;;;;;;5073468;28;20109;-67
2022/07/06 07:50:05;;;;;;;5.88;1.50;;;17.30;99.90;;;;;;5068120;28;20527;-68
2022/07/06 07:52:31;;;;;;;5.93;1.30;;;17.40;99.90;;;;;;5048745;28;20052;-69
2022/07/06 07:54:56;;;;;;;3.72;1.17;;;17.50;99.90;;;;;;5083151;28;20036;-69
2022/07/06 07:57:22;;;;;;;4.55;1.15;;;17.60;99.90;;;;;;5067713;28;20072;-68
2022/07/06 07:59:47;;;;;;;3.05;1.10;;;17.70;99.90;;;;;;5068817;28;20425;-69
2022/07/06 08:02:13;;;;;;;2.33;0.98;;;17.80;99.90;;;;;;5069387;28;20524;-70
2022/07/06 08:04:39;;;;;;;4.53;1.30;;;18.10;99.90;;;;;;5068656;28;20098;-69
2022/07/06 08:07:04;;;;;;;3.20;0.93;;;18.10;99.90;;;;;;5052016;28;20044;-68
2022/07/06 08:09:30;;;;;;;4.70;1.10;;;18.10;99.90;;;;;;5069141;28;20075;-69
2022/07/06 08:11:56;;;;;;;4.15;1.02;;;18.20;99.90;;;;;;5050148;28;20090;-68
2022/07/06 08:14:22;;;;;;;3.00;1.08;;;18.20;99.90;;;;;;5069367;28;20040;-68
2022/07/06 08:16:47;;;;;;;6.35;1.20;;;18.20;99.90;;;;;;5069098;28;20044;-68
2022/07/06 08:19:14;;;;;;;4.20;1.23;;;18.40;99.90;;;;;;5067674;28;20080;-69
2022/07/06 08:21:41;;;;;;;5.75;1.30;;;18.20;99.90;;;;;;5067625;28;20052;-68
2022/07/06 08:24:06;;;;;;;5.43;1.25;;;18.40;99.90;;;;;;5052485;28;20128;-68
2022/07/06 08:26:32;;;;;;;3.85;1.17;;;18.50;99.90;;;;;;5046774;28;20142;-68
2022/07/06 08:28:58;;;;;;;5.03;1.20;;;18.50;99.90;;;;;;5048937;28;20037;-68
2022/07/06 08:31:24;;;;;;;5.55;1.30;;;18.80;99.90;;;;;;5047030;28;20401;-69
2022/07/06 08:33:52;;;;;;;3.65;1.35;;;19.20;99.90;;;;;;5049014;28;20040;-69
2022/07/06 08:36:18;;;;;;;6.10;1.10;;;18.60;99.90;;;;;;5029838;28;20060;-68
2022/07/06 08:38:44;;;;;;;3.45;1.05;;;18.70;99.90;;;;;;5047725;28;20474;-68
2022/07/06 08:41:10;;;;;;;3.38;0.95;;;18.70;99.90;;;;;;5047987;28;20048;-68
2022/07/06 08:43:36;;;;;;;3.00;1.30;;;18.80;99.90;;;;;;5030450;28;20116;-68
2022/07/06 08:46:02;;;;;;;2.65;1.13;;;18.90;99.90;;;;;;5047551;28;20121;-68
2022/07/06 08:48:35;;;;;;;6.70;1.15;;;19.10;99.90;;;;;;5048273;28;20048;-68
2022/07/06 08:51:01;;;;;;;4.13;1.10;;;19.60;99.90;;;;;;5048017;28;20112;-68
2022/07/06 08:53:26;;;;;;;3.22;1.20;;;19.10;99.90;;;;;;5047082;28;20037;-69
2022/07/06 08:55:52;;;;;;;5.63;1.40;;;19.20;99.90;;;;;;5049756;28;20316;-68
2022/07/06 08:58:18;;;;;;;1.90;0.98;;;19.20;99.90;;;;;;5050550;28;20370;-67
2022/07/06 09:00:44;;;;;;;6.70;1.30;;;19.30;99.90;;;;;;5047480;28;20045;-68
2022/07/06 09:03:12;;;;;;;3.00;1.20;;;19.30;99.90;;;;;;5047991;28;20040;-67
2022/07/06 09:05:40;;;;;;;7.63;1.60;;;19.40;99.90;;;;;;5030326;28;20041;-68
2022/07/06 09:08:06;;;;;;;5.80;1.30;;;19.20;99.90;;;;;;5046396;28;20044;-68
2022/07/06 09:10:31;;;;;;;3.65;0.95;;;19.50;99.90;;;;;;5048384;28;20497;-67
2022/07/06 09:13:04;;;;;;;3.92;1.20;;;18.80;99.90;;;;;;5047274;28;20045;-68
2022/07/06 09:15:31;;;;;;;5.10;1.20;;;18.60;99.90;;;;;;5047103;28;20103;-68
2022/07/06 09:17:57;;;;;;;3.90;1.08;;;18.50;99.90;;;;;;5047413;28;20098;-68
2022/07/06 09:20:23;;;;;;;4.18;1.20;;;18.60;99.90;;;;;;5047728;28;20078;-67
2022/07/06 09:22:49;;;;;;;5.65;1.45;;;18.50;99.90;;;;;;5046282;28;20041;-67
2022/07/06 09:25:15;;;;;;;6.53;1.52;;;18.70;99.90;;;;;;5029208;28;20052;-67
2022/07/06 09:27:54;;;;;;;4.25;1.20;;;18.60;99.90;;;;;;5046694;28;20102;-68
2022/07/06 09:30:21;;;;;;;4.55;1.40;;;19.00;99.90;;;;;;5046912;28;20080;-68
2022/07/06 09:32:50;;;;;;;4.32;1.40;;;19.10;99.90;;;;;;5049167;28;20466;-68
2022/07/06 09:35:45;;;;;;;5.80;1.30;;;19.20;99.90;;;;;;5049418;28;20094;-67
2022/07/06 09:38:14;;;;;;;4.38;1.13;;;19.60;99.90;;;;;;5046576;28;20060;-67
2022/07/06 09:40:45;;;;;;;5.03;1.42;;;19.80;99.90;;;;;;5029900;28;20060;-67
2022/07/06 09:43:14;;;;;;;4.22;1.33;;;19.80;99.90;;;;;;5046088;28;20124;-67
2022/07/06 09:45:45;;;;;;;4.28;1.10;;;19.80;99.90;;;;;;5047436;28;20084;-68
2022/07/06 09:48:12;;;;;;;4.28;1.02;;;19.70;99.90;;;;;;5047636;28;20351;-65
2022/07/06 09:50:58;;;;;;;7.38;1.40;;;19.80;99.90;;;;;;5046233;28;20067;-67
2022/07/06 09:53:26;;;;;;;2.42;1.05;;;20.00;99.90;;;;;;5046290;28;20474;-69
2022/07/06 09:55:54;;;;;;;4.07;1.23;;;20.00;99.90;;;;;;5046441;28;20045;-68
2022/07/06 09:58:22;;;;;;;3.78;1.23;;;20.10;99.90;;;;;;5046692;28;20045;-69
2022/07/06 10:00:48;;;;;;;7.72;1.20;;;20.20;99.90;;;;;;5046948;28;20041;-68
2022/07/06 10:03:15;;;;;;;6.07;1.23;;;19.90;99.90;;;;;;5063646;28;20383;-67
2022/07/06 10:05:43;;;;;;;5.45;1.30;;;20.30;99.90;;;;;;5049456;28;20037;-66
2022/07/06 10:08:10;;;;;;;4.93;1.17;;;20.30;99.90;;;;;;5030819;28;20135;-67
2022/07/06 10:10:38;;;;;;;4.30;1.10;;;20.30;99.90;;;;;;5062601;28;20163;-66
2022/07/06 10:13:06;;;;;;;4.25;1.10;;;20.20;99.90;;;;;;5046382;28;20070;-68
2022/07/06 10:15:33;;;;;;;3.63;1.00;;;20.30;99.90;;;;;;5046558;28;20053;-67
2022/07/06 10:18:04;;;;;;;4.13;1.23;;;20.30;99.90;;;;;;5027537;28;20071;-68
2022/07/06 10:20:33;;;;;;;6.07;1.35;;;20.30;99.90;;;;;;5046570;28;20116;-67
2022/07/06 10:23:00;;;;;;;5.38;1.42;;;21.10;99.90;;;;;;5052051;28;20052;-67
2022/07/06 10:25:27;;;;;;;5.55;1.50;;;23.60;99.90;;;;;;5065280;28;20048;-68
2022/07/06 10:27:53;;;;;;;6.15;1.30;;;26.20;97.90;;;;;;5048789;28;20417;-68
2022/07/06 10:30:20;;;;;;;3.50;1.20;;;28.10;95.10;;;;;;5065878;28;20064;-69
2022/07/06 10:32:48;;;;;;;3.90;1.30;;;29.70;92.90;;;;;;5067448;28;20124;-68
2022/07/06 10:35:14;;;;;;;6.05;1.30;;;31.00;90.50;;;;;;5046649;28;20120;-71
2022/07/06 10:37:41;;;;;;;3.80;1.40;;;31.80;87.60;;;;;;5046074;28;20048;-69
2022/07/06 10:42:59;;;;;;;3.97;1.13;;;33.80;80.30;;;;;;5049074;28;20041;-69
2022/07/06 10:45:28;;;;;;;4.20;1.20;;;34.20;77.90;;;;;;5048511;28;20405;-71
2022/07/06 10:48:12;;;;;;;3.20;1.30;;;34.40;76.70;;;;;;5032068;28;20041;-70
2022/07/06 10:50:38;;;;;;;4.10;1.23;;;34.30;72.90;;;;;;5049814;28;20048;-70
2022/07/06 10:53:10;;;;;;;2.53;1.00;;;33.20;74.60;;;;;;5029482;28;20056;-73
2022/07/06 10:55:40;;;;;;;6.45;1.27;;;31.80;75.00;;;;;;5049895;28;20424;-73
2022/07/06 10:58:06;;;;;;;3.97;1.00;;;29.90;76.50;;;;;;5050522;28;20055;-73
2022/07/06 11:00:55;;;;;;;3.58;0.93;;;28.20;78.70;;;;;;5049753;28;20045;-73
2022/07/06 11:03:37;;;;;;;4.03;1.30;;;26.70;80.40;;;;;;5050849;28;20044;-73
2022/07/06 11:06:09;;;;;;;5.60;1.10;;;25.70;82.80;;;;;;5049402;28;20041;-73
2022/07/06 11:08:42;;;;;;;2.63;1.10;;;24.70;84.60;;;;;;5049767;28;20064;-70
2022/07/06 11:11:18;;;;;;;4.85;1.33;;;24.30;84.40;;;;;;5049873;28;20140;-73
2022/07/06 11:13:51;;;;;;;8.90;1.30;;;24.10;85.30;;;;;;5032118;28;20055;-73
2022/07/06 11:16:18;;;;;;;4.80;1.10;;;23.70;86.50;;;;;;5058982;28;20052;-81
2022/07/06 11:19:01;;;;;;;4.80;1.27;;;23.80;87.20;;;;;;5094000;28;20400;-80
2022/07/06 11:21:37;;;;;;;3.60;1.10;;;24.00;87.10;;;;;;5091016;28;20134;-74
2022/07/06 11:24:05;;;;;;;2.58;1.08;;;24.00;87.30;;;;;;5058082;28;20053;-74
2022/07/06 11:26:30;;;;;;;3.95;1.05;;;23.80;88.70;;;;;;5045824;28;20481;-73
2022/07/06 11:29:02;;;;;;;5.93;1.30;;;23.50;89.50;;;;;;5045942;28;20053;-76
2022/07/06 11:31:27;;;;;;;4.50;1.27;;;23.30;90.00;;;;;;5027996;28;20543;-75
2022/07/06 11:33:53;;;;;;;6.10;1.42;;;23.30;90.30;;;;;;5066184;28;20044;-76
2022/07/06 11:36:21;;;;;;;2.90;1.13;;;24.00;90.40;;;;;;5075405;28;20040;-76
2022/07/06 11:38:49;;;;;;;2.58;0.90;;;24.60;89.60;;;;;;5069876;28;20132;-76
2022/07/06 11:41:15;;;;;;;6.28;1.30;;;26.30;88.70;;;;;;5085730;28;20539;-76
2022/07/06 11:43:45;;;;;;;2.70;1.20;;;27.20;87.20;;;;;;5077574;28;20491;-75
2022/07/06 11:46:46;;;;;;;3.80;1.13;;;27.70;84.60;;;;;;5071747;28;20047;-76
2022/07/06 11:49:12;;;;;;;5.97;1.40;;;30.00;81.20;;;;;;5002689;28;20061;-76
2022/07/06 11:51:40;;;;;;;3.30;1.30;;;32.30;80.00;;;;;;5052065;28;20454;-76
2022/07/06 11:54:14;;;;;;;3.75;1.02;;;34.50;77.40;;;;;;5064300;28;20044;-76
2022/07/06 11:56:59;;;;;;;3.00;0.90;;;34.20;73.60;;;;;;5064564;28;20376;-74
2022/07/06 11:59:26;;;;;;;;;;;32.30;71.90;;;;;;5066193;28;20052;-76
2022/07/06 12:02:08;;;;;;;4.05;1.08;;;30.80;73.40;;;;;;5070278;28;19919;-76
2022/07/06 12:04:41;;;;;;;7.60;1.30;;;31.10;74.80;;;;;;5044994;28;20098;-75
2022/07/06 12:07:11;;;;;;;3.80;1.00;;;29.90;74.20;;;;;;5026995;28;20423;-75
2022/07/06 12:09:39;;;;;;;5.32;1.13;;;28.70;76.10;;;;;;5059969;28;20136;-74
2022/07/06 12:12:06;;;;;;;3.22;0.95;;;27.80;76.80;;;;;;5068766;28;20040;-76
2022/07/06 12:14:35;;;;;;;2.38;1.00;;;27.10;77.80;;;;;;5071380;28;20085;-77
2022/07/06 12:17:07;;;;;;;3.55;1.20;;;26.20;78.90;;;;;;5067107;28;20052;-77
2022/07/06 12:19:34;;;;;;;3.67;1.08;;;25.80;79.80;;;;;;5081012;28;20101;-77
2022/07/06 12:22:01;;;;;;;4.22;1.00;;;25.30;80.70;;;;;;5071535;28;20112;-76
2022/07/06 12:24:31;;;;;;;2.92;1.10;;;24.70;81.80;;;;;;5063285;28;20040;-77
2022/07/06 12:26:58;;;;;;;2.17;0.90;;;24.50;82.10;;;;;;5070111;28;20414;-76
2022/07/06 12:29:24;;;;;;;7.13;1.20;;;24.10;82.70;;;;;;5070668;28;20422;-77
2022/07/06 12:31:54;;;;;;;4.80;1.33;;;23.60;84.60;;;;;;5069943;28;20052;-77
2022/07/06 12:34:22;;;;;;;5.90;1.23;;;23.30;85.10;;;;;;5076865;28;20048;-77
2022/07/06 12:36:50;;;;;;;4.45;1.23;;;23.10;86.20;;;;;;5067796;28;20045;-78
2022/07/06 12:39:20;;;;;;;3.05;1.20;;;23.10;86.60;;;;;;5068099;28;20044;-77
2022/07/06 12:41:53;;;;;;;3.15;1.02;;;23.20;87.10;;;;;;5068023;28;20403;-77
2022/07/06 12:44:23;;;;;;;2.33;0.98;;;23.30;85.80;;;;;;5071860;28;20393;-77
2022/07/06 12:46:50;;;;;;;2.83;1.08;;;23.40;85.40;;;;;;5035092;28;20143;-78
2022/07/06 12:49:24;;;;;;;4.13;1.33;;;23.40;85.90;;;;;;5068324;28;20067;-78
2022/07/06 12:51:54;;;;;;;5.07;1.10;;;23.10;87.10;;;;;;5068693;28;20041;-76
2022/07/06 12:54:22;;;;;;;3.40;1.10;;;23.00;87.90;;;;;;5066941;28;20037;-82